Time;durP1;ratioP1;P1;durP2;ratioP2;P2;SDS_P1;SDS_P2;PMS_P1;PMS_P2;Temp;Humidity;BMP_temperature;BMP_pressure;BME280_temperature;BME280_humidity;BME280_pressure;Samples;Min_cycle;Max_cycle;Signal;HPM_P1;HPM_P2
2022/05/28 00:01:21;;;;;;;7.97;2.85;;;12.30;80.60;;;;;;5049453;28;20028;-72
2022/05/28 00:03:48;;;;;;;7.95;2.20;;;12.30;80.40;;;;;;5048566;28;20033;-74
2022/05/28 00:06:22;;;;;;;6.28;2.17;;;12.30;81.30;;;;;;5036527;28;20031;-71
2022/05/28 00:08:48;;;;;;;6.60;2.20;;;12.30;79.70;;;;;;5067806;28;20029;-78
2022/05/28 00:11:20;;;;;;;11.23;2.40;;;12.30;80.00;;;;;;5066464;28;20619;-74
2022/05/28 00:13:47;;;;;;;9.13;2.28;;;12.30;80.10;;;;;;5029805;28;20128;-72
2022/05/28 00:16:13;;;;;;;7.00;2.20;;;12.30;80.80;;;;;;5048378;28;20036;-71
2022/05/28 00:18:40;;;;;;;9.52;2.72;;;12.20;78.00;;;;;;5054341;28;20041;-70
2022/05/28 00:21:09;;;;;;;7.03;2.28;;;12.10;78.80;;;;;;5067775;28;20037;-72
2022/05/28 00:23:36;;;;;;;8.57;2.40;;;12.10;79.40;;;;;;5068302;28;20035;-70
2022/05/28 00:26:05;;;;;;;6.45;2.40;;;12.00;81.50;;;;;;5066383;28;20036;-72
2022/05/28 00:28:31;;;;;;;6.75;2.00;;;11.90;80.90;;;;;;5067346;28;20028;-71
2022/05/28 00:30:57;;;;;;;5.07;1.77;;;11.90;81.00;;;;;;5058683;28;20068;-70
2022/05/28 00:33:23;;;;;;;8.25;2.10;;;11.90;81.40;;;;;;5047498;28;20394;-72
2022/05/28 00:35:50;;;;;;;10.95;2.45;;;11.80;81.30;;;;;;5047788;28;20052;-72
2022/05/28 00:38:16;;;;;;;5.70;2.00;;;11.80;81.80;;;;;;5066933;28;20049;-71
2022/05/28 00:40:46;;;;;;;7.18;2.10;;;11.90;82.00;;;;;;5068478;28;20043;-71
2022/05/28 00:43:12;;;;;;;7.85;2.10;;;11.80;81.00;;;;;;5067688;28;20033;-72
2022/05/28 00:45:39;;;;;;;5.90;2.10;;;11.90;80.60;;;;;;5056812;28;20036;-71
2022/05/28 00:48:06;;;;;;;9.27;2.20;;;11.90;81.30;;;;;;5064369;28;20114;-70
2022/05/28 00:50:34;;;;;;;6.10;1.95;;;11.90;80.90;;;;;;5042119;28;20049;-72
2022/05/28 00:53:01;;;;;;;8.20;2.17;;;11.90;81.10;;;;;;5065307;28;20040;-72
2022/05/28 00:55:27;;;;;;;6.80;1.90;;;11.90;80.30;;;;;;5072264;28;20111;-72
2022/05/28 00:57:53;;;;;;;5.65;2.00;;;11.80;81.00;;;;;;5071472;28;20143;-72
2022/05/28 01:00:22;;;;;;;9.32;1.70;;;11.80;80.20;;;;;;5054096;28;20047;-75
2022/05/28 01:03:03;;;;;;;6.95;2.08;;;11.80;80.20;;;;;;5070200;28;20036;-72
2022/05/28 01:05:43;;;;;;;5.80;1.88;;;11.80;79.20;;;;;;5050139;28;20052;-74
2022/05/28 01:08:52;;;;;;;6.70;1.70;;;11.80;79.30;;;;;;5059131;28;20078;-70
2022/05/28 01:11:36;;;;;;;3.90;1.50;;;11.80;79.10;;;;;;5008812;28;20100;-70
2022/05/28 01:14:24;;;;;;;6.15;1.70;;;11.80;80.40;;;;;;5008794;28;20093;-71
2022/05/28 01:17:03;;;;;;;6.00;1.63;;;11.70;78.90;;;;;;5020978;28;20037;-72
2022/05/28 01:19:38;;;;;;;7.88;1.60;;;11.70;78.80;;;;;;5012206;28;20049;-71
2022/05/28 01:22:33;;;;;;;7.00;1.83;;;11.70;78.10;;;;;;5028625;28;20133;-70
2022/05/28 01:25:10;;;;;;;8.15;1.60;;;11.60;77.40;;;;;;5006075;28;20046;-72
2022/05/28 01:27:44;;;;;;;6.45;1.70;;;11.60;77.10;;;;;;5010860;28;20037;-73
2022/05/28 01:30:14;;;;;;;5.85;1.73;;;11.50;77.90;;;;;;5010104;28;20049;-71
2022/05/28 01:32:41;;;;;;;7.78;1.90;;;11.50;79.00;;;;;;5007326;28;20046;-70
2022/05/28 01:35:10;;;;;;;9.55;1.90;;;11.40;76.80;;;;;;4996327;28;20416;-74
2022/05/28 01:37:37;;;;;;;8.00;1.80;;;11.30;76.50;;;;;;5009371;28;20397;-69
2022/05/28 01:40:08;;;;;;;5.70;1.58;;;11.30;77.10;;;;;;4992216;28;20132;-71
2022/05/28 01:42:36;;;;;;;7.97;2.00;;;11.20;77.70;;;;;;5008860;28;20596;-72
2022/05/28 01:45:05;;;;;;;4.55;1.60;;;11.10;79.60;;;;;;5026590;28;20794;-70
2022/05/28 01:47:33;;;;;;;6.55;1.90;;;11.10;77.70;;;;;;5032702;28;20047;-71
2022/05/28 01:50:00;;;;;;;5.80;1.77;;;11.00;78.80;;;;;;5048932;28;20044;-69
2022/05/28 01:52:27;;;;;;;4.05;1.50;;;11.00;79.50;;;;;;5052962;28;20044;-71
2022/05/28 01:54:53;;;;;;;5.72;1.73;;;11.00;79.00;;;;;;5046898;28;20200;-69
2022/05/28 01:57:19;;;;;;;5.88;1.48;;;11.00;78.40;;;;;;5032797;28;20029;-74
2022/05/28 01:59:45;;;;;;;5.72;1.58;;;11.00;78.00;;;;;;5031507;28;20090;-73
2022/05/28 02:02:14;;;;;;;9.18;2.25;;;10.90;77.60;;;;;;5051658;28;20379;-70
2022/05/28 02:04:43;;;;;;;8.30;1.58;;;10.90;78.40;;;;;;5050723;28;20098;-73
2022/05/28 02:07:10;;;;;;;9.20;1.60;;;10.90;78.30;;;;;;5044255;28;20029;-71
2022/05/28 02:09:40;;;;;;;5.55;1.33;;;10.80;79.50;;;;;;5051246;28;20483;-70
2022/05/28 02:12:30;;;;;;;5.40;1.55;;;10.80;79.80;;;;;;5050837;28;20086;-70
2022/05/28 02:15:34;;;;;;;6.10;1.60;;;10.80;81.70;;;;;;5050350;28;20116;-75
2022/05/28 02:18:23;;;;;;;5.25;1.65;;;10.80;83.30;;;;;;5067797;28;20032;-71
2022/05/28 02:21:09;;;;;;;11.07;1.98;;;10.90;83.10;;;;;;5043743;28;20086;-72
2022/05/28 02:23:49;;;;;;;6.75;1.80;;;10.90;82.80;;;;;;5041341;28;20033;-70
2022/05/28 02:26:33;;;;;;;3.83;1.33;;;10.90;83.00;;;;;;5029059;28;20047;-76
2022/05/28 02:29:00;;;;;;;8.48;1.63;;;10.90;83.70;;;;;;5049799;28;20465;-70
2022/05/28 02:31:29;;;;;;;9.70;1.73;;;10.80;82.90;;;;;;5049380;28;20060;-71
2022/05/28 02:33:55;;;;;;;5.93;1.80;;;10.80;83.00;;;;;;5051224;28;20083;-71
2022/05/28 02:36:22;;;;;;;5.95;1.70;;;10.80;81.80;;;;;;5049986;28;20025;-72
2022/05/28 02:38:48;;;;;;;5.43;1.75;;;10.70;81.20;;;;;;5036734;28;20535;-69
2022/05/28 02:41:14;;;;;;;6.85;1.88;;;10.60;81.60;;;;;;5031938;28;20037;-70
2022/05/28 02:43:39;;;;;;;6.40;1.88;;;10.50;83.80;;;;;;5059809;28;20032;-70
2022/05/28 02:46:07;;;;;;;8.23;2.03;;;10.40;84.50;;;;;;5031405;28;20052;-72
2022/05/28 02:48:33;;;;;;;7.60;2.00;;;10.30;85.00;;;;;;5047341;28;20129;-72
2022/05/28 02:51:19;;;;;;;6.55;1.80;;;10.20;85.70;;;;;;5049815;28;20120;-71
2022/05/28 02:53:46;;;;;;;6.45;1.92;;;10.20;85.90;;;;;;5053234;28;20029;-71
2022/05/28 02:56:12;;;;;;;6.30;2.17;;;10.20;86.20;;;;;;5031849;28;20041;-71
2022/05/28 02:58:38;;;;;;;6.55;1.95;;;10.20;85.80;;;;;;5049531;28;20029;-74
2022/05/28 03:01:28;;;;;;;6.45;2.15;;;10.20;84.90;;;;;;5032595;28;20037;-71
2022/05/28 03:03:56;;;;;;;10.05;2.30;;;10.10;85.60;;;;;;5023832;28;20396;-73
2022/05/28 03:06:22;;;;;;;8.27;2.30;;;9.80;86.10;;;;;;5049486;28;20510;-70
2022/05/28 03:08:47;;;;;;;5.78;1.92;;;9.70;87.50;;;;;;5066956;28;20147;-72
2022/05/28 03:11:13;;;;;;;5.65;2.20;;;9.70;88.90;;;;;;5068953;28;20131;-72
2022/05/28 03:13:40;;;;;;;11.25;2.85;;;9.60;88.80;;;;;;5069039;28;20048;-72
2022/05/28 03:16:06;;;;;;;10.18;2.10;;;9.60;88.40;;;;;;5068843;28;20036;-72
2022/05/28 03:18:32;;;;;;;8.48;2.42;;;9.40;88.60;;;;;;5053617;28;20157;-71
2022/05/28 03:20:57;;;;;;;7.18;2.30;;;9.40;90.00;;;;;;5061933;28;20489;-71
2022/05/28 03:23:23;;;;;;;5.85;2.25;;;9.30;90.20;;;;;;5045192;28;20031;-72
2022/05/28 03:25:49;;;;;;;7.88;2.38;;;9.30;90.30;;;;;;5033948;28;20120;-71
2022/05/28 03:28:14;;;;;;;6.90;1.80;;;9.40;89.30;;;;;;5059967;28;20104;-70
2022/05/28 03:30:40;;;;;;;5.15;1.70;;;9.50;88.50;;;;;;5068466;28;20052;-71
2022/05/28 03:33:06;;;;;;;8.27;2.33;;;9.50;88.40;;;;;;5048073;28;20028;-70
2022/05/28 03:35:32;;;;;;;6.28;1.85;;;9.60;88.20;;;;;;5030483;28;20037;-72
2022/05/28 03:37:57;;;;;;;7.30;1.80;;;9.70;87.70;;;;;;5030436;28;20534;-71
2022/05/28 03:40:23;;;;;;;6.47;2.00;;;9.70;87.70;;;;;;5048500;28;20459;-71
2022/05/28 03:42:49;;;;;;;4.60;1.63;;;9.80;87.50;;;;;;5031001;28;20028;-70
2022/05/28 03:45:14;;;;;;;8.18;2.33;;;9.80;88.00;;;;;;5048769;28;20036;-70
2022/05/28 03:47:40;;;;;;;6.50;2.03;;;9.90;88.10;;;;;;5056733;28;20036;-72
2022/05/28 03:50:06;;;;;;;6.03;2.20;;;9.90;87.10;;;;;;5048465;28;20494;-72
2022/05/28 03:52:32;;;;;;;8.00;1.95;;;9.90;86.50;;;;;;5039666;28;20032;-72
2022/05/28 03:54:58;;;;;;;8.75;1.83;;;10.00;86.40;;;;;;5068504;28;20028;-70
2022/05/28 03:57:26;;;;;;;8.05;1.58;;;10.00;86.50;;;;;;5062248;28;20039;-71
2022/05/28 03:59:52;;;;;;;6.13;1.48;;;10.00;87.80;;;;;;5048314;28;20048;-70
2022/05/28 04:02:18;;;;;;;7.55;1.90;;;10.10;88.30;;;;;;5040036;28;20033;-70
2022/05/28 04:04:43;;;;;;;7.80;1.90;;;10.10;87.90;;;;;;5048243;28;20483;-71
2022/05/28 04:07:11;;;;;;;7.13;1.88;;;10.10;88.30;;;;;;5049703;28;20033;-74
2022/05/28 04:09:37;;;;;;;5.55;1.38;;;10.10;87.50;;;;;;5033826;28;20033;-73
2022/05/28 04:12:03;;;;;;;5.72;2.00;;;10.20;88.40;;;;;;5030832;28;20044;-72
2022/05/28 04:14:29;;;;;;;4.88;1.77;;;10.20;86.90;;;;;;5057407;28;20135;-71
2022/05/28 04:16:54;;;;;;;8.73;1.90;;;10.10;86.80;;;;;;5049472;28;20124;-71
2022/05/28 04:19:20;;;;;;;3.88;1.88;;;10.00;88.90;;;;;;5033533;28;20111;-73
2022/05/28 04:21:47;;;;;;;8.10;2.10;;;10.10;89.80;;;;;;5056525;28;20043;-70
2022/05/28 04:24:13;;;;;;;8.80;2.42;;;10.10;89.70;;;;;;5060004;28;20036;-71
2022/05/28 04:26:38;;;;;;;6.47;2.28;;;10.10;88.70;;;;;;5032941;28;20028;-69
2022/05/28 04:29:05;;;;;;;6.55;2.28;;;10.10;88.90;;;;;;5057604;28;20032;-69
2022/05/28 04:31:31;;;;;;;7.72;1.90;;;10.10;88.90;;;;;;5048979;28;20127;-71
2022/05/28 04:33:56;;;;;;;7.43;2.40;;;10.10;88.70;;;;;;5050806;28;20124;-71
2022/05/28 04:36:22;;;;;;;9.43;2.20;;;10.10;88.70;;;;;;5035707;28;20113;-71
2022/05/28 04:38:48;;;;;;;7.13;2.50;;;10.10;88.30;;;;;;5024038;28;20084;-70
2022/05/28 04:41:13;;;;;;;5.97;2.00;;;10.10;88.30;;;;;;5049138;28;20582;-72
2022/05/28 04:43:39;;;;;;;8.13;2.40;;;10.10;88.90;;;;;;5067718;28;20035;-71
2022/05/28 04:46:05;;;;;;;8.32;2.30;;;10.10;88.50;;;;;;5067994;28;20036;-71
2022/05/28 04:48:31;;;;;;;7.90;2.08;;;10.10;89.00;;;;;;5062481;28;20040;-71
2022/05/28 04:50:57;;;;;;;6.00;2.00;;;10.10;88.50;;;;;;5067377;28;20442;-71
2022/05/28 04:53:23;;;;;;;5.03;1.92;;;10.10;88.80;;;;;;5043045;28;20039;-72
2022/05/28 04:55:49;;;;;;;7.65;1.73;;;10.10;88.90;;;;;;5059112;28;20028;-71
2022/05/28 04:58:15;;;;;;;4.95;1.50;;;10.00;88.40;;;;;;5042422;28;20036;-71
2022/05/28 05:00:43;;;;;;;6.72;1.80;;;10.10;89.00;;;;;;5057787;28;20094;-71
2022/05/28 05:03:08;;;;;;;7.13;2.13;;;10.00;88.40;;;;;;5049467;28;20082;-72
2022/05/28 05:05:34;;;;;;;7.28;2.08;;;10.10;88.90;;;;;;5060195;28;20033;-70
2022/05/28 05:08:00;;;;;;;5.80;1.58;;;10.10;89.00;;;;;;5046076;28;20033;-70
2022/05/28 05:10:26;;;;;;;8.50;1.90;;;10.00;89.00;;;;;;5047517;28;20037;-73
2022/05/28 05:12:51;;;;;;;3.97;1.65;;;10.10;89.00;;;;;;5026262;28;20124;-71
2022/05/28 05:15:17;;;;;;;7.82;2.20;;;10.10;89.40;;;;;;5048355;28;20518;-71
2022/05/28 05:17:43;;;;;;;8.13;1.77;;;10.10;89.10;;;;;;5029455;28;20079;-69
2022/05/28 05:20:11;;;;;;;9.13;2.00;;;10.10;89.10;;;;;;5046479;28;20822;-70
2022/05/28 05:22:37;;;;;;;8.13;1.83;;;10.10;89.10;;;;;;5037129;28;20040;-70
2022/05/28 05:25:04;;;;;;;8.00;1.80;;;10.10;89.00;;;;;;5058968;28;20036;-69
2022/05/28 05:27:29;;;;;;;6.03;1.58;;;10.10;89.30;;;;;;5051063;28;20051;-70
2022/05/28 05:29:59;;;;;;;6.82;1.50;;;10.10;89.70;;;;;;5055810;28;20033;-72
2022/05/28 05:32:25;;;;;;;6.45;1.65;;;10.10;89.30;;;;;;5048468;28;20029;-71
2022/05/28 05:34:51;;;;;;;6.50;2.00;;;10.10;89.10;;;;;;5037889;28;20486;-71
2022/05/28 05:37:17;;;;;;;10.23;1.90;;;10.10;89.30;;;;;;5071105;28;20089;-70
2022/05/28 05:39:43;;;;;;;7.72;1.80;;;10.10;89.40;;;;;;5060605;28;20647;-71
2022/05/28 05:42:08;;;;;;;5.03;1.48;;;10.10;89.20;;;;;;5051251;28;20098;-71
2022/05/28 05:44:34;;;;;;;6.05;1.70;;;10.10;89.00;;;;;;5051125;28;20040;-71
2022/05/28 05:47:00;;;;;;;7.38;1.40;;;10.10;88.90;;;;;;5051135;28;20025;-70
2022/05/28 05:49:26;;;;;;;6.93;1.70;;;10.10;89.20;;;;;;5050787;28;20035;-72
2022/05/28 05:51:52;;;;;;;6.80;1.80;;;10.10;89.80;;;;;;5032825;28;20045;-70
2022/05/28 05:54:19;;;;;;;5.60;1.83;;;10.20;89.60;;;;;;5048893;28;20133;-74
2022/05/28 05:56:45;;;;;;;6.00;1.40;;;10.20;88.90;;;;;;5050314;28;20037;-73
2022/05/28 05:59:11;;;;;;;4.97;1.63;;;10.20;88.80;;;;;;5032286;28;20040;-73
2022/05/28 06:01:36;;;;;;;5.60;1.60;;;10.30;88.40;;;;;;5036891;28;20068;-72
2022/05/28 06:04:02;;;;;;;8.90;1.52;;;10.30;88.80;;;;;;5049451;28;20108;-71
2022/05/28 06:06:28;;;;;;;6.47;1.45;;;10.40;88.40;;;;;;5050084;28;20059;-71
2022/05/28 06:08:54;;;;;;;5.93;1.67;;;10.50;88.50;;;;;;5049687;28;20045;-71
2022/05/28 06:11:19;;;;;;;6.47;1.60;;;10.50;88.20;;;;;;5048622;28;20055;-71
2022/05/28 06:13:45;;;;;;;7.32;1.80;;;10.60;88.10;;;;;;5051912;28;20417;-70
2022/05/28 06:16:11;;;;;;;9.60;1.40;;;10.70;87.50;;;;;;5048321;28;20609;-72
2022/05/28 06:18:36;;;;;;;5.07;1.35;;;10.80;87.70;;;;;;5028946;28;20080;-72
2022/05/28 06:21:03;;;;;;;7.05;1.52;;;10.80;87.20;;;;;;5050051;28;20029;-71
2022/05/28 06:23:29;;;;;;;6.38;1.40;;;10.90;87.10;;;;;;5050282;28;20039;-72
2022/05/28 06:25:55;;;;;;;7.70;1.50;;;10.90;86.90;;;;;;5050389;28;20036;-70
2022/05/28 06:28:21;;;;;;;9.35;1.83;;;11.10;87.30;;;;;;5032162;28;20025;-71
2022/05/28 06:30:50;;;;;;;10.18;1.70;;;11.10;87.10;;;;;;5045542;28;20049;-74
2022/05/28 06:33:17;;;;;;;7.78;1.60;;;11.20;86.80;;;;;;5048744;28;20033;-73
2022/05/28 06:35:43;;;;;;;9.05;1.60;;;11.30;86.70;;;;;;5050091;28;20119;-70
2022/05/28 06:38:09;;;;;;;6.40;1.45;;;11.40;86.70;;;;;;5048024;28;20045;-70
2022/05/28 06:40:35;;;;;;;6.05;1.60;;;11.50;85.50;;;;;;5050675;28;20044;-72
2022/05/28 06:43:02;;;;;;;9.93;1.60;;;11.70;85.40;;;;;;5034345;28;20036;-74
2022/05/28 06:45:28;;;;;;;6.65;1.55;;;11.70;85.00;;;;;;5068721;28;20044;-72
2022/05/28 06:47:53;;;;;;;6.32;1.77;;;11.80;84.00;;;;;;5043783;28;20041;-71
2022/05/28 06:53:08;;;;;;;6.70;1.45;;;12.00;84.50;;;;;;5044044;28;20099;-72
2022/05/28 06:55:35;;;;;;;6.50;1.40;;;12.10;82.40;;;;;;5047329;28;20044;-74
2022/05/28 06:58:01;;;;;;;4.60;1.20;;;12.20;82.90;;;;;;5043755;28;20041;-75
2022/05/28 07:00:26;;;;;;;7.18;1.80;;;12.40;83.50;;;;;;5047924;28;20029;-73
2022/05/28 07:02:52;;;;;;;7.53;1.48;;;12.50;82.60;;;;;;5047750;28;20136;-72
2022/05/28 07:05:18;;;;;;;6.75;1.50;;;12.60;81.40;;;;;;5050472;28;20040;-74
2022/05/28 07:07:44;;;;;;;6.85;1.20;;;12.70;80.00;;;;;;5047406;28;20102;-71
2022/05/28 07:10:10;;;;;;;7.80;1.63;;;12.80;80.80;;;;;;5048924;28;20044;-73
2022/05/28 07:12:36;;;;;;;7.90;1.17;;;12.90;80.00;;;;;;5049319;28;20214;-73
2022/05/28 07:15:02;;;;;;;4.15;1.20;;;13.00;79.30;;;;;;5048920;28;20445;-75
2022/05/28 07:17:27;;;;;;;5.60;1.10;;;13.10;76.90;;;;;;5049695;28;20035;-72
2022/05/28 07:19:53;;;;;;;6.57;1.20;;;13.20;78.40;;;;;;5030868;28;20036;-75
2022/05/28 07:22:19;;;;;;;4.85;1.10;;;13.30;78.10;;;;;;5048713;28;20029;-72
2022/05/28 07:24:44;;;;;;;4.65;0.98;;;13.40;78.00;;;;;;5023411;28;20040;-74
2022/05/28 07:27:12;;;;;;;9.65;1.73;;;13.60;76.50;;;;;;5017413;28;20028;-75
2022/05/28 07:29:39;;;;;;;8.43;1.70;;;13.70;75.30;;;;;;5027182;28;20518;-73
2022/05/28 07:32:05;;;;;;;6.57;1.20;;;13.70;74.50;;;;;;5028824;28;20041;-73
2022/05/28 07:34:31;;;;;;;5.13;1.17;;;13.80;75.90;;;;;;5043710;28;20028;-75
2022/05/28 07:36:57;;;;;;;5.25;0.90;;;13.90;76.10;;;;;;5048495;28;20033;-75
2022/05/28 07:39:23;;;;;;;5.25;1.15;;;14.00;74.70;;;;;;5046087;28;20053;-73
2022/05/28 07:41:49;;;;;;;8.70;1.48;;;14.00;74.80;;;;;;5046551;28;20028;-75
2022/05/28 07:44:15;;;;;;;6.13;1.42;;;14.10;74.00;;;;;;5046135;28;20044;-73
2022/05/28 07:46:40;;;;;;;8.32;1.33;;;14.10;74.00;;;;;;5054661;28;20501;-75
2022/05/28 07:49:07;;;;;;;8.25;1.50;;;14.20;74.90;;;;;;5044040;28;20028;-76
2022/05/28 07:51:34;;;;;;;5.07;1.00;;;14.20;74.50;;;;;;5046087;28;20039;-74
2022/05/28 07:54:00;;;;;;;7.10;1.48;;;14.30;75.10;;;;;;5030233;28;20029;-73
2022/05/28 07:56:25;;;;;;;5.53;1.35;;;14.40;73.90;;;;;;5030093;28;20040;-72
2022/05/28 07:58:51;;;;;;;8.55;1.13;;;14.50;74.80;;;;;;5026296;28;20060;-70
2022/05/28 08:01:22;;;;;;;6.80;1.38;;;14.60;72.80;;;;;;5046780;28;20032;-72
2022/05/28 08:03:48;;;;;;;6.95;1.08;;;14.70;73.50;;;;;;5029202;28;20089;-72
2022/05/28 08:06:15;;;;;;;5.78;1.10;;;14.80;72.50;;;;;;5032488;28;20048;-75
2022/05/28 08:08:41;;;;;;;6.35;1.13;;;14.80;72.40;;;;;;5022920;28;20082;-72
2022/05/28 08:11:08;;;;;;;7.85;1.30;;;14.90;72.00;;;;;;5047449;28;20037;-71
2022/05/28 08:13:34;;;;;;;3.88;1.10;;;14.80;71.50;;;;;;5028960;28;20025;-71
2022/05/28 08:16:00;;;;;;;4.25;1.00;;;14.80;71.70;;;;;;5037927;28;20033;-71
2022/05/28 08:18:26;;;;;;;5.28;1.02;;;14.90;70.80;;;;;;5029415;28;20025;-71
2022/05/28 08:23:40;;;;;;;5.47;1.30;;;14.90;70.60;;;;;;5047138;28;20076;-71
2022/05/28 08:26:06;;;;;;;7.63;1.75;;;15.00;70.90;;;;;;5048482;28;20067;-71
2022/05/28 08:28:32;;;;;;;5.00;1.50;;;15.00;71.70;;;;;;5030224;28;20033;-72
2022/05/28 08:30:58;;;;;;;7.20;1.10;;;15.10;69.60;;;;;;5028866;28;20049;-71
2022/05/28 08:33:23;;;;;;;5.85;1.50;;;15.20;70.70;;;;;;5028095;28;20037;-72
2022/05/28 08:35:50;;;;;;;4.50;1.02;;;15.20;70.10;;;;;;5027094;28;20140;-72
2022/05/28 08:38:19;;;;;;;5.18;1.38;;;15.30;70.50;;;;;;5028308;28;20057;-70
2022/05/28 08:40:47;;;;;;;8.50;1.40;;;15.40;70.70;;;;;;5026871;28;20034;-73
2022/05/28 08:43:15;;;;;;;6.28;1.08;;;15.50;69.50;;;;;;5026670;28;20557;-71
2022/05/28 08:45:48;;;;;;;5.82;1.20;;;15.60;68.70;;;;;;5026184;28;20033;-72
2022/05/28 08:48:17;;;;;;;5.60;0.90;;;15.60;68.60;;;;;;5045556;28;20056;-74
2022/05/28 08:51:05;;;;;;;6.20;1.08;;;15.70;67.40;;;;;;5042206;28;20041;-72
2022/05/28 08:53:36;;;;;;;6.63;1.27;;;15.70;68.30;;;;;;5027943;28;20048;-68
2022/05/28 08:56:04;;;;;;;5.07;1.60;;;15.80;67.60;;;;;;5027804;28;20065;-75
2022/05/28 08:58:32;;;;;;;7.60;1.90;;;15.90;66.90;;;;;;5009652;28;20025;-73
2022/05/28 09:01:06;;;;;;;6.32;1.65;;;16.00;66.90;;;;;;5028022;28;20091;-73
2022/05/28 09:03:59;;;;;;;5.80;1.55;;;16.00;66.90;;;;;;5027686;28;20029;-73
2022/05/28 09:06:37;;;;;;;5.10;1.30;;;16.10;66.30;;;;;;5027899;28;20026;-73
2022/05/28 09:09:03;;;;;;;8.02;1.40;;;16.40;65.00;;;;;;5011186;28;20030;-74
2022/05/28 09:11:37;;;;;;;5.72;0.90;;;16.70;65.10;;;;;;5031535;28;20049;-72
2022/05/28 09:14:24;;;;;;;4.18;0.80;;;16.90;65.00;;;;;;5031871;28;20086;-72
2022/05/28 09:16:55;;;;;;;8.50;1.70;;;17.00;64.10;;;;;;5031611;28;20032;-73
2022/05/28 09:19:33;;;;;;;4.78;1.10;;;17.10;61.80;;;;;;5031770;28;20038;-73
2022/05/28 09:21:59;;;;;;;3.72;1.00;;;17.10;61.80;;;;;;5031413;28;20091;-77
2022/05/28 09:24:31;;;;;;;4.15;0.90;;;17.10;62.20;;;;;;5031724;28;20033;-75
2022/05/28 09:27:17;;;;;;;6.57;1.10;;;17.20;62.70;;;;;;5013836;28;20784;-72
2022/05/28 09:29:43;;;;;;;6.35;1.20;;;17.10;60.60;;;;;;5031413;28;20021;-71
2022/05/28 09:32:27;;;;;;;4.32;1.00;;;17.10;62.40;;;;;;5030952;28;20087;-73
2022/05/28 09:35:26;;;;;;;6.25;1.00;;;17.20;63.70;;;;;;5052952;28;20029;-77
2022/05/28 09:38:24;;;;;;;4.88;0.88;;;17.40;60.90;;;;;;5033011;28;20102;-74
2022/05/28 09:40:53;;;;;;;4.22;0.88;;;17.20;60.80;;;;;;5018922;28;20775;-71
2022/05/28 09:43:45;;;;;;;4.47;0.90;;;17.30;60.10;;;;;;5051000;28;20037;-72
2022/05/28 09:46:21;;;;;;;4.65;1.02;;;17.30;61.60;;;;;;5032522;28;20021;-71
2022/05/28 09:49:17;;;;;;;3.63;0.98;;;17.30;61.00;;;;;;5050805;28;20025;-73
2022/05/28 09:52:10;;;;;;;4.30;1.00;;;17.50;58.90;;;;;;5031922;28;20048;-75
2022/05/28 09:54:37;;;;;;;4.30;0.90;;;17.70;59.70;;;;;;5047870;28;20443;-74
2022/05/28 09:57:10;;;;;;;5.28;0.95;;;17.80;60.10;;;;;;5051014;28;20064;-75
2022/05/28 09:59:46;;;;;;;8.52;1.48;;;17.80;57.60;;;;;;5050807;28;20029;-72
2022/05/28 10:02:17;;;;;;;4.40;1.20;;;17.60;58.30;;;;;;5030844;28;20088;-72
2022/05/28 10:05:09;;;;;;;3.70;0.80;;;17.60;59.50;;;;;;5030655;28;20475;-74
2022/05/28 10:07:36;;;;;;;4.53;1.08;;;17.50;57.80;;;;;;5023714;28;20481;-71
2022/05/28 10:10:16;;;;;;;3.15;0.80;;;17.30;58.90;;;;;;5012864;28;20084;-74
2022/05/28 10:12:42;;;;;;;6.85;1.20;;;17.00;59.80;;;;;;5031042;28;20033;-74
2022/05/28 10:15:19;;;;;;;3.83;0.80;;;16.90;60.80;;;;;;5030515;28;20034;-74
2022/05/28 10:17:57;;;;;;;4.82;1.00;;;16.70;62.70;;;;;;5030799;28;20387;-74
2022/05/28 10:20:23;;;;;;;3.58;0.80;;;16.70;60.50;;;;;;5011653;28;20079;-75
2022/05/28 10:22:52;;;;;;;7.63;1.02;;;17.10;63.00;;;;;;5031368;28;20048;-75
2022/05/28 10:25:46;;;;;;;3.67;0.80;;;17.60;61.80;;;;;;5030561;28;20155;-72
2022/05/28 10:28:12;;;;;;;5.32;1.20;;;17.90;57.90;;;;;;5030334;28;20432;-73
2022/05/28 10:30:41;;;;;;;5.57;1.00;;;18.00;57.80;;;;;;5038116;28;20051;-76
2022/05/28 10:33:28;;;;;;;5.03;0.98;;;17.80;58.20;;;;;;5032390;28;20144;-75
2022/05/28 10:36:06;;;;;;;4.03;0.90;;;17.60;57.30;;;;;;5031868;28;20034;-76
2022/05/28 10:38:32;;;;;;;5.68;1.10;;;17.50;59.00;;;;;;5029833;28;20049;-72
2022/05/28 10:41:01;;;;;;;5.78;0.80;;;17.30;59.60;;;;;;5030192;28;20035;-73
2022/05/28 10:43:31;;;;;;;4.97;0.93;;;17.10;60.90;;;;;;5029996;28;20029;-71
2022/05/28 10:46:08;;;;;;;4.45;1.00;;;17.00;61.80;;;;;;5030534;28;20030;-72
2022/05/28 10:48:39;;;;;;;5.45;1.10;;;16.90;61.90;;;;;;5049687;28;20483;-73
2022/05/28 10:51:48;;;;;;;4.18;1.08;;;16.90;62.60;;;;;;5049807;28;20736;-73
2022/05/28 10:54:33;;;;;;;4.47;0.93;;;16.90;62.30;;;;;;5031819;28;20037;-75
2022/05/28 10:57:04;;;;;;;9.63;1.30;;;17.00;61.00;;;;;;5031438;28;20072;-72
2022/05/28 10:59:33;;;;;;;4.68;1.10;;;17.20;61.40;;;;;;5033659;28;20517;-72
2022/05/28 11:02:44;;;;;;;7.53;1.08;;;17.50;61.50;;;;;;5011785;28;20514;-73
2022/05/28 11:05:30;;;;;;;6.65;1.20;;;18.20;59.60;;;;;;4968097;28;20057;-75
2022/05/28 11:07:56;;;;;;;5.15;1.00;;;18.40;56.60;;;;;;4968190;28;20105;-74
2022/05/28 11:10:36;;;;;;;6.80;1.17;;;18.40;56.30;;;;;;4951824;28;20172;-73
2022/05/28 11:13:27;;;;;;;4.63;1.02;;;18.30;56.90;;;;;;4967720;28;20444;-74
2022/05/28 11:16:07;;;;;;;5.15;1.10;;;18.30;57.20;;;;;;4951619;28;20035;-76
2022/05/28 11:18:50;;;;;;;6.72;1.00;;;18.20;58.00;;;;;;4951649;28;20493;-75
2022/05/28 11:21:45;;;;;;;5.78;1.17;;;18.30;56.30;;;;;;4967987;28;20533;-74
2022/05/28 11:24:41;;;;;;;3.47;1.17;;;19.40;54.30;;;;;;4967378;28;20114;-73
2022/05/28 11:27:25;;;;;;;3.83;1.15;;;20.50;52.70;;;;;;4967959;28;20038;-72
2022/05/28 11:30:02;;;;;;;8.10;1.17;;;21.10;50.30;;;;;;4951871;28;20053;-72
2022/05/28 11:32:33;;;;;;;3.95;0.90;;;20.80;50.00;;;;;;4967783;28;20085;-75
2022/05/28 11:35:24;;;;;;;4.82;1.10;;;20.60;50.10;;;;;;4968183;28;20031;-72
2022/05/28 11:38:19;;;;;;;2.97;0.95;;;20.30;50.30;;;;;;4983814;28;20058;-74
2022/05/28 11:41:04;;;;;;;5.85;0.90;;;19.80;51.50;;;;;;5027105;28;20041;-74
2022/05/28 11:43:44;;;;;;;4.18;1.15;;;19.30;52.10;;;;;;5027376;28;20399;-73
2022/05/28 11:46:21;;;;;;;5.28;1.15;;;19.20;54.60;;;;;;5029026;28;20479;-75
2022/05/28 11:52:22;;;;;;;6.15;1.10;;;18.80;54.80;;;;;;5029636;28;20055;-74
2022/05/28 11:54:54;;;;;;;6.90;1.20;;;18.50;56.20;;;;;;5027766;28;20391;-75
2022/05/28 11:57:43;;;;;;;4.30;1.20;;;18.30;55.00;;;;;;5029444;28;20049;-74
2022/05/28 12:00:11;;;;;;;5.88;0.98;;;18.20;55.20;;;;;;5028577;28;20171;-77
2022/05/28 12:03:04;;;;;;;5.80;1.40;;;18.00;57.70;;;;;;5029344;28;20033;-74
2022/05/28 12:06:05;;;;;;;4.60;1.08;;;17.80;57.30;;;;;;5028701;28;20048;-75
2022/05/28 12:08:40;;;;;;;4.72;1.05;;;17.70;60.10;;;;;;5029127;28;20745;-75
2022/05/28 12:11:33;;;;;;;7.32;1.10;;;17.70;56.70;;;;;;5027359;28;20065;-72
2022/05/28 12:14:02;;;;;;;4.32;1.05;;;17.70;58.50;;;;;;5028995;28;20045;-73
2022/05/28 12:16:40;;;;;;;5.65;1.50;;;17.70;57.30;;;;;;5027714;28;20033;-74
2022/05/28 12:19:22;;;;;;;4.20;1.02;;;17.80;59.00;;;;;;5027372;28;20034;-72
2022/05/28 12:21:48;;;;;;;4.10;1.10;;;18.20;59.80;;;;;;5028484;28;20037;-73
2022/05/28 12:24:20;;;;;;;5.90;1.10;;;18.70;56.80;;;;;;5028423;28;20620;-74
2022/05/28 12:29:49;;;;;;;6.93;1.20;;;19.30;53.50;;;;;;5028737;28;20034;-77
2022/05/28 12:32:17;;;;;;;8.88;1.13;;;19.40;52.20;;;;;;5028385;28;20112;-73
2022/05/28 12:35:05;;;;;;;4.75;1.00;;;19.20;52.80;;;;;;5028179;28;20030;-74
2022/05/28 12:38:09;;;;;;;4.53;1.02;;;18.80;52.60;;;;;;5031761;28;20041;-73
2022/05/28 12:40:57;;;;;;;5.63;1.30;;;18.30;53.80;;;;;;5027337;28;20032;-73
2022/05/28 12:43:38;;;;;;;5.18;1.00;;;18.00;54.20;;;;;;5029859;28;20021;-73
2022/05/28 12:46:19;;;;;;;5.38;0.88;;;17.80;55.00;;;;;;5048314;28;20136;-73
2022/05/28 12:48:47;;;;;;;4.18;0.80;;;17.80;55.70;;;;;;5030443;28;20025;-75
2022/05/28 12:51:16;;;;;;;4.75;0.93;;;18.00;53.40;;;;;;5030423;28;20122;-74
2022/05/28 12:53:54;;;;;;;4.93;1.00;;;18.50;53.30;;;;;;5048070;28;20108;-75
2022/05/28 12:56:35;;;;;;;6.43;0.98;;;18.90;53.30;;;;;;5047816;28;20215;-73
2022/05/28 12:59:12;;;;;;;5.72;0.95;;;18.80;50.70;;;;;;5039831;28;20042;-72
2022/05/28 13:01:48;;;;;;;5.50;1.00;;;18.60;52.20;;;;;;5044027;28;20084;-72
2022/05/28 13:04:18;;;;;;;4.93;0.95;;;18.50;55.00;;;;;;5043522;28;20038;-78
2022/05/28 13:06:54;;;;;;;7.22;1.13;;;18.60;56.50;;;;;;5027993;28;20030;-72
2022/05/28 13:09:25;;;;;;;6.03;1.00;;;18.60;53.80;;;;;;5028061;28;20034;-74
2022/05/28 13:11:57;;;;;;;4.40;1.00;;;18.60;52.80;;;;;;5010303;28;20670;-72
2022/05/28 13:14:32;;;;;;;5.45;1.27;;;18.60;53.90;;;;;;5046806;28;20037;-72
2022/05/28 13:17:35;;;;;;;3.10;0.85;;;18.50;52.10;;;;;;5047356;28;20052;-75
2022/05/28 13:20:43;;;;;;;3.97;0.93;;;18.40;55.80;;;;;;5047785;28;20036;-74
2022/05/28 13:23:28;;;;;;;7.28;1.35;;;18.20;54.20;;;;;;4986008;28;20046;-76